Time;durP1;ratioP1;P1;durP2;ratioP2;P2;SDS_P1;SDS_P2;PMS_P1;PMS_P2;Temp;Humidity;BMP_temperature;BMP_pressure;BME280_temperature;BME280_humidity;BME280_pressure;Samples;Min_cycle;Max_cycle;Signal;HPM_P1;HPM_P2
2022/05/26 00:01:19;;;;;;;0.40;0.40;;;;;;;17.52;69.12;100523.84;5022195;28;20452;-55
2022/05/26 00:03:48;;;;;;;0.40;0.20;;;;;;;17.48;69.79;100519.59;5027472;28;20462;-55
2022/05/26 00:06:17;;;;;;;0.40;0.20;;;;;;;17.46;70.24;100524.19;5023227;28;20507;-55
2022/05/26 00:08:45;;;;;;;0.40;0.20;;;;;;;17.43;70.23;100519.88;5030921;28;20456;-55
2022/05/26 00:11:19;;;;;;;0.60;0.60;;;;;;;17.46;71.19;100522.38;5030683;28;20498;-55
2022/05/26 00:13:46;;;;;;;0.40;0.20;;;;;;;17.46;68.89;100532.25;5031674;28;20979;-55
2022/05/26 00:16:13;;;;;;;0.40;0.30;;;;;;;17.50;70.22;100527.59;5025101;28;20826;-56
2022/05/26 00:18:40;;;;;;;0.40;0.20;;;;;;;17.43;71.82;100533.31;5028615;28;20456;-56
2022/05/26 00:21:07;;;;;;;0.37;0.20;;;;;;;17.27;71.08;100531.47;5017948;28;20480;-55
2022/05/26 00:23:33;;;;;;;0.40;0.20;;;;;;;17.34;72.49;100528.41;5024880;28;20514;-56
2022/05/26 00:26:00;;;;;;;0.40;0.20;;;;;;;17.28;72.26;100531.44;5026069;28;20456;-56
2022/05/26 00:28:27;;;;;;;0.40;0.20;;;;;;;17.22;71.60;100537.09;5024962;28;20506;-56
2022/05/26 00:30:54;;;;;;;0.40;0.20;;;;;;;17.27;72.36;100534.16;5026863;28;21000;-55
2022/05/26 00:33:21;;;;;;;0.50;0.50;;;;;;;17.30;73.27;100531.34;5029590;28;20456;-56
2022/05/26 00:35:47;;;;;;;0.40;0.20;;;;;;;17.11;73.33;100539.47;5030528;28;20838;-56
2022/05/26 00:38:14;;;;;;;0.40;0.20;;;;;;;17.05;74.27;100540.66;5032354;28;20974;-55
2022/05/26 00:40:42;;;;;;;0.40;0.20;;;;;;;16.92;74.91;100541.38;5020939;28;20472;-55
2022/05/26 00:43:10;;;;;;;0.40;0.20;;;;;;;16.96;75.09;100545.63;5018496;28;20451;-55
2022/05/26 00:45:48;;;;;;;0.40;0.20;;;;;;;16.76;76.41;100535.91;5031924;28;20538;-56
2022/05/26 00:48:19;;;;;;;0.40;0.20;;;;;;;17.06;74.96;100538.84;5029583;28;20965;-56
2022/05/26 00:50:52;;;;;;;0.40;0.20;;;;;;;17.01;75.29;100536.41;5023200;28;20506;-56
2022/05/26 00:53:53;;;;;;;0.50;0.33;;;;;;;16.98;75.14;100536.53;5030747;28;20452;-55
2022/05/26 00:56:45;;;;;;;0.40;0.20;;;;;;;16.91;74.69;100536.94;5028796;28;21154;-55
2022/05/26 00:59:24;;;;;;;0.40;0.20;;;;;;;17.10;73.16;100538.59;4995965;28;20491;-55
2022/05/26 01:01:51;;;;;;;0.40;0.20;;;;;;;17.15;72.64;100541.06;5027261;28;20459;-56
2022/05/26 01:04:21;;;;;;;13.03;1.43;;;;;;;17.30;70.67;100537.59;5031263;28;20517;-55
2022/05/26 01:06:50;;;;;;;0.40;0.20;;;;;;;17.55;69.62;100537.16;5029303;28;20520;-55
2022/05/26 01:09:17;;;;;;;0.43;0.30;;;;;;;17.52;68.94;100545.38;5003232;28;20512;-56
2022/05/26 01:11:45;;;;;;;0.40;0.20;;;;;;;17.60;68.30;100550.34;5028757;28;20456;-56
2022/05/26 01:14:18;;;;;;;0.53;0.30;;;;;;;17.47;69.29;100555.50;5029220;28;20506;-56
2022/05/26 01:17:10;;;;;;;0.40;0.20;;;;;;;17.47;68.62;100550.13;5027666;28;20561;-56
2022/05/26 01:20:07;;;;;;;0.40;0.20;;;;;;;17.62;68.02;100553.81;5017722;28;20989;-56
2022/05/26 01:22:53;;;;;;;0.40;0.20;;;;;;;17.73;67.33;100555.03;5016778;28;20489;-55
2022/05/26 01:25:47;;;;;;;0.60;0.60;;;;;;;17.54;67.91;100550.66;5016551;28;20499;-56
2022/05/26 01:28:46;;;;;;;1.17;1.07;;;;;;;17.54;68.89;100553.34;5029410;28;20452;-55
2022/05/26 01:31:33;;;;;;;0.40;0.20;;;;;;;17.60;68.77;100555.72;5022866;28;20456;-55
2022/05/26 01:34:18;;;;;;;0.40;0.30;;;;;;;17.46;68.71;100554.63;5022885;28;20494;-56
2022/05/26 01:37:06;;;;;;;0.40;0.20;;;;;;;17.36;69.27;100547.13;5012799;28;20541;-56
2022/05/26 01:39:51;;;;;;;0.40;0.20;;;;;;;17.36;69.40;100549.81;5021777;28;20480;-56
2022/05/26 01:43:06;;;;;;;0.40;0.20;;;;;;;17.66;68.54;100555.38;5016210;28;20527;-56
2022/05/26 01:45:54;;;;;;;0.40;0.20;;;;;;;17.61;69.06;100554.78;4969988;28;20454;-56
2022/05/26 01:48:33;;;;;;;0.40;0.20;;;;;;;17.47;68.91;100550.13;5004048;28;20461;-55
2022/05/26 01:51:12;;;;;;;0.40;0.20;;;;;;;17.75;67.19;100550.41;5007186;28;20992;-56
2022/05/26 01:54:00;;;;;;;0.40;0.20;;;;;;;17.59;67.73;100545.91;5018923;28;20453;-56
2022/05/26 01:56:35;;;;;;;0.40;0.20;;;;;;;17.30;68.37;100537.59;5018590;28;20484;-55
2022/05/26 01:59:13;;;;;;;0.40;0.20;;;;;;;17.38;68.53;100538.03;5023492;28;20587;-56
2022/05/26 02:01:45;;;;;;;0.40;0.20;;;;;;;17.33;68.24;100542.78;5016998;28;20452;-56
2022/05/26 02:04:27;;;;;;;0.40;0.20;;;;;;;17.39;68.40;100542.44;5020498;28;20455;-56
2022/05/26 02:07:01;;;;;;;0.40;0.20;;;;;;;17.79;67.18;100543.03;5018874;28;20463;-56
2022/05/26 02:09:34;;;;;;;0.40;0.20;;;;;;;17.35;68.19;100538.19;5026818;28;20471;-56
2022/05/26 02:12:08;;;;;;;0.40;0.20;;;;;;;17.35;68.29;100543.56;5026008;28;20451;-56
2022/05/26 02:14:38;;;;;;;0.40;0.20;;;;;;;17.39;68.20;100542.44;5027560;28;20517;-56
2022/05/26 02:17:13;;;;;;;0.40;0.20;;;;;;;17.63;67.43;100551.03;5027172;28;20860;-56
2022/05/26 02:19:43;;;;;;;0.40;0.20;;;;;;;17.51;67.82;100553.50;5017360;28;20472;-56
2022/05/26 02:22:25;;;;;;;1.03;1.03;;;;;;;17.48;68.09;100555.41;5015188;28;20483;-56
2022/05/26 02:25:18;;;;;;;0.40;0.20;;;;;;;17.36;69.05;100556.06;5020041;28;20451;-56
2022/05/26 02:27:47;;;;;;;0.40;0.20;;;;;;;17.32;68.47;100554.50;5015091;28;20461;-56
2022/05/26 02:30:14;;;;;;;0.40;0.20;;;;;;;17.10;70.20;100559.22;5026187;28;20833;-56
2022/05/26 02:32:47;;;;;;;1.13;0.60;;;;;;;16.95;70.20;100557.31;5017255;28;20449;-56
2022/05/26 02:35:15;;;;;;;2.20;2.00;;;;;;;16.88;70.92;100560.31;5005317;28;20480;-56
2022/05/26 02:37:43;;;;;;;0.40;0.30;;;;;;;16.64;71.81;100564.19;5019684;28;20448;-56
2022/05/26 02:40:11;;;;;;;0.40;0.20;;;;;;;16.48;72.96;100552.47;5016737;28;20476;-56
2022/05/26 02:42:55;;;;;;;0.40;0.20;;;;;;;16.55;72.86;100562.81;5021392;28;20483;-56
2022/05/26 02:45:51;;;;;;;0.40;0.20;;;;;;;16.62;72.77;100560.72;5018033;28;20448;-56
2022/05/26 02:48:51;;;;;;;0.40;0.20;;;;;;;16.45;73.35;100558.88;5010352;28;20949;-56
2022/05/26 02:51:38;;;;;;;0.40;0.20;;;;;;;16.77;72.57;100559.13;4997761;28;20829;-56
2022/05/26 02:54:45;;;;;;;0.40;0.20;;;;;;;16.66;73.12;100559.63;5017405;28;21023;-56
2022/05/26 02:57:35;;;;;;;0.40;0.20;;;;;;;16.68;73.19;100564.94;5013582;28;20495;-56
2022/05/26 03:00:19;;;;;;;0.40;0.20;;;;;;;16.61;73.94;100564.34;5005030;28;21079;-56
2022/05/26 03:03:07;;;;;;;0.40;0.20;;;;;;;16.25;75.04;100572.34;5016708;28;20506;-56
2022/05/26 03:05:41;;;;;;;0.40;0.20;;;;;;;16.28;75.31;100574.88;5026535;28;20452;-56
2022/05/26 03:08:13;;;;;;;0.40;0.20;;;;;;;16.22;75.31;100577.88;5019699;28;20491;-56
2022/05/26 03:10:39;;;;;;;0.40;0.20;;;;;;;16.36;75.23;100570.03;5023065;28;20476;-56
2022/05/26 03:13:06;;;;;;;0.40;0.20;;;;;;;16.22;75.31;100580.56;5012702;28;20452;-56
2022/05/26 03:15:33;;;;;;;0.40;0.20;;;;;;;16.20;75.67;100585.13;5018988;28;20545;-56
2022/05/26 03:18:01;;;;;;;0.40;0.20;;;;;;;16.03;76.67;100579.66;5021954;28;20448;-56
2022/05/26 03:20:28;;;;;;;0.40;0.20;;;;;;;16.03;77.47;100579.66;5024697;28;20480;-56
2022/05/26 03:22:55;;;;;;;0.40;0.20;;;;;;;16.00;76.91;100583.34;5015521;28;20484;-56
2022/05/26 03:25:22;;;;;;;0.40;0.20;;;;;;;16.00;77.54;100583.34;5024574;28;20451;-56
2022/05/26 03:27:49;;;;;;;0.40;0.20;;;;;;;15.85;77.91;100589.41;5024208;28;20468;-56
2022/05/26 03:30:16;;;;;;;0.40;0.30;;;;;;;15.77;77.92;100591.59;5025873;28;20531;-56
2022/05/26 03:32:42;;;;;;;0.40;0.20;;;;;;;15.84;78.27;100596.59;5016774;28;20460;-56
2022/05/26 03:40:56;;;;;;;0.40;0.20;;;;;;;16.10;77.17;100606.13;5016197;28;20985;-56
2022/05/26 03:43:30;;;;;;;0.40;0.20;;;;;;;16.15;77.39;100608.59;5019212;28;20500;-56
2022/05/26 03:46:00;;;;;;;0.40;0.20;;;;;;;16.10;77.30;100610.63;5017782;28;20459;-56
2022/05/26 03:48:27;;;;;;;0.40;0.20;;;;;;;16.12;77.61;100611.41;5015762;28;20445;-56
2022/05/26 03:50:55;;;;;;;0.40;0.20;;;;;;;16.08;78.54;100610.69;5023064;28;20557;-56
2022/05/26 03:53:21;;;;;;;0.40;0.20;;;;;;;15.94;78.75;100603.28;5027955;28;20459;-56
2022/05/26 03:55:48;;;;;;;0.40;0.20;;;;;;;15.91;79.21;100615.97;5028822;28;20957;-56
2022/05/26 03:58:15;;;;;;;0.40;0.20;;;;;;;15.93;79.73;100623.00;5017739;28;20476;-56
2022/05/26 04:00:42;;;;;;;0.40;0.20;;;;;;;15.96;79.84;100624.66;5016605;28;20492;-56
2022/05/26 04:03:09;;;;;;;0.40;0.20;;;;;;;16.10;79.39;100629.41;5023999;28;20447;-56
2022/05/26 04:05:36;;;;;;;0.40;0.20;;;;;;;16.05;79.76;100634.13;5019750;28;20525;-56
2022/05/26 04:08:03;;;;;;;0.40;0.20;;;;;;;16.00;79.71;100631.63;5020432;28;20826;-56
2022/05/26 04:10:29;;;;;;;0.40;0.20;;;;;;;16.08;80.01;100626.78;5028947;28;20525;-56
2022/05/26 04:12:56;;;;;;;0.40;0.20;;;;;;;16.19;79.78;100627.16;5013104;28;20457;-56
2022/05/26 04:15:23;;;;;;;0.40;0.20;;;;;;;16.07;81.51;100622.38;5024854;28;20452;-56
2022/05/26 04:17:50;;;;;;;0.40;0.30;;;;;;;15.94;82.23;100629.22;5013846;28;20488;-56
2022/05/26 04:20:20;;;;;;;0.40;0.20;;;;;;;15.91;83.27;100635.59;5016436;28;20476;-56
2022/05/26 04:22:47;;;;;;;0.40;0.20;;;;;;;15.86;83.08;100636.72;5026617;28;20451;-56
2022/05/26 04:25:14;;;;;;;0.40;0.20;;;;;;;15.73;83.41;100627.50;5027755;28;20491;-56
2022/05/26 04:27:41;;;;;;;0.40;0.20;;;;;;;15.68;84.97;100643.78;5029904;28;20459;-56
2022/05/26 04:30:10;;;;;;;0.40;0.20;;;;;;;15.88;84.38;100641.06;5004409;28;20503;-56
2022/05/26 04:32:37;;;;;;;0.40;0.20;;;;;;;16.06;84.42;100634.03;5020439;28;20503;-56
2022/05/26 04:35:04;;;;;;;0.40;0.20;;;;;;;16.97;80.13;100639.53;5018185;28;20990;-56
2022/05/26 04:37:30;;;;;;;0.40;0.20;;;;;;;17.77;75.40;100639.94;5022053;28;21055;-56
2022/05/26 04:39:58;;;;;;;0.40;0.20;;;;;;;18.85;71.69;100643.91;5023689;28;20498;-56
2022/05/26 04:42:27;;;;;;;0.40;0.20;;;;;;;19.37;69.14;100648.09;5034461;28;20933;-56
2022/05/26 04:44:54;;;;;;;0.40;0.20;;;;;;;19.50;68.46;100654.50;5019087;28;20484;-56
2022/05/26 04:47:21;;;;;;;0.40;0.20;;;;;;;18.99;69.54;100661.09;5016768;28;20934;-56
2022/05/26 04:49:48;;;;;;;0.40;0.20;;;;;;;18.62;71.76;100657.75;5022730;28;20475;-56
2022/05/26 04:52:18;;;;;;;0.40;0.20;;;;;;;18.19;72.81;100660.13;5026862;28;20464;-56
2022/05/26 04:54:46;;;;;;;0.40;0.20;;;;;;;18.13;74.26;100668.53;5025071;28;20506;-56
2022/05/26 04:57:14;;;;;;;0.40;0.20;;;;;;;18.13;73.86;100671.22;5020569;28;20980;-56
2022/05/26 04:59:41;;;;;;;0.40;0.20;;;;;;;18.02;74.86;100665.53;5025827;28;20487;-56
2022/05/26 05:02:15;;;;;;;0.40;0.20;;;;;;;17.91;75.13;100676.88;5019864;28;20490;-56
2022/05/26 05:04:44;;;;;;;0.40;0.20;;;;;;;17.58;76.35;100679.47;5025390;28;21192;-56
2022/05/26 05:07:11;;;;;;;0.40;0.20;;;;;;;17.58;76.97;100687.53;5024813;28;20456;-56
2022/05/26 05:09:39;;;;;;;0.40;0.20;;;;;;;17.67;76.23;100676.28;5028123;28;20471;-56
2022/05/26 05:12:07;;;;;;;0.40;0.20;;;;;;;18.03;75.58;100678.03;5028606;28;20449;-56
2022/05/26 05:14:48;;;;;;;0.40;0.20;;;;;;;18.43;74.19;100681.28;5018393;28;20526;-56
2022/05/26 05:17:17;;;;;;;0.40;0.20;;;;;;;18.99;71.66;100674.56;5014018;28;20527;-56
2022/05/26 05:19:44;;;;;;;0.40;0.40;;;;;;;19.40;69.94;100681.13;5020344;28;20512;-56
2022/05/26 05:22:31;;;;;;;0.40;0.20;;;;;;;19.89;68.46;100680.94;5028685;28;20586;-56
2022/05/26 05:25:03;;;;;;;0.40;0.20;;;;;;;20.49;65.15;100682.63;5028121;28;21008;-57
2022/05/26 05:27:39;;;;;;;0.40;0.20;;;;;;;19.43;68.54;100689.03;5016414;28;20456;-56
2022/05/26 05:30:15;;;;;;;0.50;0.30;;;;;;;19.04;70.36;100689.50;5020810;28;20471;-55
2022/05/26 05:32:49;;;;;;;0.40;0.20;;;;;;;18.83;71.90;100690.75;5015879;28;20464;-56
2022/05/26 05:35:20;;;;;;;0.40;0.20;;;;;;;18.70;72.39;100700.47;5014666;28;20456;-55
2022/05/26 05:37:47;;;;;;;0.40;0.20;;;;;;;18.43;73.03;100702.81;5014316;28;20553;-55
2022/05/26 05:40:14;;;;;;;0.40;0.20;;;;;;;18.56;73.58;100707.44;5000663;28;20595;-56
2022/05/26 05:42:41;;;;;;;0.40;0.20;;;;;;;18.56;72.69;100710.13;5014402;28;21034;-55
2022/05/26 05:45:09;;;;;;;0.40;0.20;;;;;;;18.86;72.48;100715.69;5019000;28;20444;-55
2022/05/26 05:47:35;;;;;;;0.40;0.20;;;;;;;18.84;72.07;100712.19;5023630;28;20455;-54
2022/05/26 05:50:03;;;;;;;0.40;0.20;;;;;;;18.51;73.65;100714.91;5025864;28;21001;-55
2022/05/26 05:52:30;;;;;;;0.40;0.20;;;;;;;18.65;73.11;100711.50;5017795;28;20452;-55
2022/05/26 05:54:57;;;;;;;0.40;0.20;;;;;;;18.81;72.90;100724.97;5017245;28;20461;-54
2022/05/26 05:57:23;;;;;;;0.40;0.20;;;;;;;18.61;73.59;100718.81;5028280;28;20535;-54
2022/05/26 05:59:50;;;;;;;0.40;0.20;;;;;;;18.75;72.72;100719.91;5022704;28;20603;-54
2022/05/26 06:02:17;;;;;;;0.40;0.20;;;;;;;18.85;73.40;100713.94;5021553;28;20804;-55
2022/05/26 06:04:59;;;;;;;0.50;0.30;;;;;;;18.03;75.42;100716.56;5023150;28;20796;-55
2022/05/26 06:07:26;;;;;;;0.40;0.20;;;;;;;18.10;76.59;100721.66;5018253;28;20513;-56
2022/05/26 06:09:53;;;;;;;0.40;0.20;;;;;;;18.03;76.11;100731.84;5016110;28;20473;-55
2022/05/26 06:12:20;;;;;;;0.40;0.20;;;;;;;18.38;75.70;100719.22;5010220;28;20459;-55
2022/05/26 06:14:47;;;;;;;0.40;0.20;;;;;;;18.50;74.69;100725.75;5025762;28;20451;-56
2022/05/26 06:17:15;;;;;;;0.40;0.20;;;;;;;18.22;76.40;100724.53;5014117;28;20480;-55
2022/05/26 06:19:43;;;;;;;0.40;0.20;;;;;;;18.37;75.17;100736.34;5015360;28;20527;-55
2022/05/26 06:22:17;;;;;;;0.40;0.20;;;;;;;18.44;75.63;100735.03;5016453;28;20953;-54
2022/05/26 06:24:45;;;;;;;0.40;0.20;;;;;;;18.26;76.18;100736.91;5020138;28;20506;-55
2022/05/26 06:30:00;;;;;;;0.50;0.30;;;;;;;18.19;76.20;100751.63;5025958;28;20521;-55
2022/05/26 06:38:00;;;;;;;0.40;0.20;;;;;;;18.76;74.70;100760.22;5021604;28;20570;-53
2022/05/26 06:40:28;;;;;;;0.40;0.20;;;;;;;18.46;75.32;100756.47;5015709;28;20480;-52
2022/05/26 06:42:58;;;;;;;0.40;0.20;;;;;;;18.76;74.88;100760.22;5019190;28;20447;-53
2022/05/26 06:45:24;;;;;;;0.40;0.27;;;;;;;18.81;74.51;100763.56;5026866;28;20503;-52
2022/05/26 06:47:51;;;;;;;0.40;0.20;;;;;;;18.75;75.02;100760.31;5028255;28;20455;-53
2022/05/26 06:50:18;;;;;;;0.40;0.20;;;;;;;18.83;74.48;100767.03;5019471;28;20539;-56
2022/05/26 06:52:45;;;;;;;0.40;0.20;;;;;;;18.93;74.60;100767.41;5016614;28;20487;-56
2022/05/26 06:55:11;;;;;;;0.40;0.20;;;;;;;19.40;73.41;100767.41;5019877;28;20844;-56
2022/05/26 06:57:38;;;;;;;0.40;0.20;;;;;;;19.77;71.85;100768.88;5030066;28;20542;-56
2022/05/26 07:00:07;;;;;;;0.40;0.20;;;;;;;19.31;73.64;100772.44;5021546;28;20504;-56
2022/05/26 07:02:34;;;;;;;0.40;0.20;;;;;;;19.61;73.57;100773.44;5015917;28;20456;-56
2022/05/26 07:05:02;;;;;;;0.40;0.20;;;;;;;19.61;72.28;100778.81;5013378;28;20547;-56
2022/05/26 07:07:28;;;;;;;0.40;0.20;;;;;;;20.16;71.42;100785.47;5024339;28;20505;-56
2022/05/26 07:09:55;;;;;;;0.40;0.20;;;;;;;19.61;71.26;100781.53;5017003;28;20989;-56
2022/05/26 07:12:23;;;;;;;0.40;0.20;;;;;;;20.09;71.18;100782.25;5018323;28;20464;-59
2022/05/26 07:14:51;;;;;;;7.50;2.20;;;;;;;20.42;71.06;100784.75;5018049;28;20452;-56
2022/05/26 07:17:18;;;;;;;0.40;0.20;;;;;;;20.50;69.76;100784.31;5026049;28;20495;-57
2022/05/26 07:19:45;;;;;;;0.40;0.20;;;;;;;20.29;69.99;100783.78;5027722;28;20834;-56
2022/05/26 07:22:13;;;;;;;0.50;0.40;;;;;;;20.30;69.52;100789.06;4997699;28;20500;-56
2022/05/26 07:24:41;;;;;;;0.40;0.20;;;;;;;20.30;71.24;100788.22;5019437;28;20457;-56
2022/05/26 07:27:08;;;;;;;1.57;0.50;;;;;;;20.12;69.72;100795.56;5021194;28;20456;-57
2022/05/26 07:29:34;;;;;;;0.40;0.20;;;;;;;19.99;70.08;100799.97;5014304;28;20539;-56
2022/05/26 07:32:02;;;;;;;0.40;0.20;;;;;;;20.17;69.89;100806.97;5010208;28;20440;-57
2022/05/26 07:34:29;;;;;;;0.40;0.20;;;;;;;20.00;70.02;100797.16;5027174;28;20966;-56
2022/05/26 07:42:31;;;;;;;0.40;0.20;;;;;;;19.77;69.93;100801.25;5015641;28;20449;-56
2022/05/26 07:45:00;;;;;;;0.40;0.20;;;;;;;19.98;70.49;100800.91;5017505;28;20957;-57
2022/05/26 07:47:27;;;;;;;0.40;0.20;;;;;;;20.27;70.63;100800.03;5014686;28;20804;-56
2022/05/26 07:49:55;;;;;;;0.40;0.20;;;;;;;20.26;72.43;100802.84;5018933;28;21137;-56
2022/05/26 07:52:22;;;;;;;0.40;0.20;;;;;;;20.77;69.61;100800.63;5016730;28;20460;-57
2022/05/26 07:54:49;;;;;;;0.40;0.20;;;;;;;20.63;69.79;100804.19;5021432;28;21011;-56
2022/05/26 07:57:22;;;;;;;0.40;0.30;;;;;;;20.53;68.32;100797.63;5021964;28;20894;-56
2022/05/26 07:59:50;;;;;;;0.40;0.20;;;;;;;20.25;69.27;100799.28;5025728;28;20864;-56
2022/05/26 08:02:18;;;;;;;0.40;0.20;;;;;;;20.46;67.89;100809.78;5031136;28;20944;-57
2022/05/26 08:04:46;;;;;;;2.00;2.00;;;;;;;20.64;67.77;100811.34;5018837;28;20941;-56
2022/05/26 08:07:14;;;;;;;0.40;0.20;;;;;;;20.54;67.26;100810.16;5025258;28;20447;-56
2022/05/26 08:09:41;;;;;;;0.40;0.20;;;;;;;20.45;68.37;100808.91;5018137;28;20523;-56
2022/05/26 08:12:12;;;;;;;0.40;0.20;;;;;;;20.45;67.88;100811.59;5028770;28;20511;-56
2022/05/26 08:14:41;;;;;;;0.40;0.20;;;;;;;20.64;67.88;100820.31;5018513;28;20532;-57
2022/05/26 08:17:13;;;;;;;0.40;0.20;;;;;;;20.43;68.44;100818.06;5014954;28;20480;-57
2022/05/26 08:19:41;;;;;;;0.40;0.20;;;;;;;20.17;68.36;100827.72;5028518;28;20467;-56
2022/05/26 08:22:07;;;;;;;0.40;0.20;;;;;;;20.02;68.98;100829.50;5023249;28;20506;-57
2022/05/26 08:24:34;;;;;;;0.40;0.20;;;;;;;20.14;68.89;100828.72;5034988;28;20456;-56
2022/05/26 08:27:01;;;;;;;0.40;0.20;;;;;;;20.26;68.28;100824.44;5029379;28;20463;-57
2022/05/26 08:29:28;;;;;;;0.40;0.20;;;;;;;20.08;69.21;100832.69;5034893;28;20517;-56
2022/05/26 08:31:54;;;;;;;0.40;0.20;;;;;;;20.40;68.02;100840.66;5035105;28;21024;-56
2022/05/26 08:34:21;;;;;;;0.40;0.20;;;;;;;20.34;67.96;100833.81;5022787;28;20507;-56
2022/05/26 08:36:48;;;;;;;0.40;0.20;;;;;;;20.70;67.10;100840.69;5032263;28;20455;-57
2022/05/26 08:39:16;;;;;;;0.40;0.20;;;;;;;20.90;66.52;100843.00;5019942;28;20527;-56
2022/05/26 08:41:49;;;;;;;0.40;0.20;;;;;;;20.77;66.85;100841.16;5035044;28;20461;-57
2022/05/26 08:44:27;;;;;;;0.40;0.20;;;;;;;20.80;66.79;100839.13;5019338;28;20490;-57
2022/05/26 08:47:03;;;;;;;0.40;0.20;;;;;;;20.81;66.93;100842.69;5019709;28;20449;-56
2022/05/26 08:50:09;;;;;;;0.40;0.30;;;;;;;21.33;65.20;100847.56;5034407;28;20464;-56
2022/05/26 08:52:48;;;;;;;0.40;0.20;;;;;;;21.42;65.58;100852.38;4994782;28;20463;-57
2022/05/26 08:55:23;;;;;;;0.40;0.20;;;;;;;20.88;65.68;100846.78;5029653;28;20461;-57
2022/05/26 08:58:11;;;;;;;0.50;0.40;;;;;;;21.16;66.60;100849.47;5010596;28;20491;-56
2022/05/26 09:00:40;;;;;;;0.40;0.20;;;;;;;21.61;63.98;100857.44;5033816;28;20506;-57
2022/05/26 09:03:22;;;;;;;0.40;0.20;;;;;;;21.51;65.19;100851.75;5005983;28;20457;-57
2022/05/26 09:06:07;;;;;;;0.40;0.20;;;;;;;21.89;62.28;100860.06;5016088;28;20460;-56
2022/05/26 09:14:20;;;;;;;0.40;0.20;;;;;;;22.17;61.41;100853.69;5011844;28;20443;-57
2022/05/26 09:16:47;;;;;;;0.40;0.20;;;;;;;21.47;61.55;100861.06;5025812;28;20510;-56
2022/05/26 09:19:20;;;;;;;0.40;0.20;;;;;;;21.44;61.79;100872.94;5030361;28;21016;-56
2022/05/26 09:21:50;;;;;;;0.40;0.20;;;;;;;21.30;61.78;100867.56;5019015;28;20478;-57
2022/05/26 09:24:19;;;;;;;0.43;0.27;;;;;;;21.36;61.89;100868.97;5034030;28;20448;-57
2022/05/26 09:26:48;;;;;;;0.40;0.20;;;;;;;21.57;62.95;100867.63;5013367;28;20465;-57
2022/05/26 09:29:15;;;;;;;0.40;0.20;;;;;;;21.92;60.46;100870.69;5013863;28;20542;-56
2022/05/26 09:31:47;;;;;;;0.40;0.20;;;;;;;21.98;59.28;100870.31;5020738;28;20459;-57
2022/05/26 09:34:26;;;;;;;0.40;0.20;;;;;;;21.83;60.27;100876.72;5028814;28;20491;-56
2022/05/26 09:37:02;;;;;;;0.40;0.20;;;;;;;22.05;60.80;100874.34;5033932;28;20945;-57
2022/05/26 09:39:42;;;;;;;0.50;0.30;;;;;;;22.01;59.81;100861.09;5015392;28;20488;-56
2022/05/26 09:42:19;;;;;;;0.40;0.20;;;;;;;21.81;57.37;100870.56;5008416;28;20936;-56
2022/05/26 09:44:46;;;;;;;0.40;0.20;;;;;;;21.85;57.25;100866.66;5033791;28;20486;-56
2022/05/26 09:47:39;;;;;;;0.40;0.20;;;;;;;21.40;59.16;100867.84;5022397;28;20972;-57
2022/05/26 09:50:28;;;;;;;0.40;0.20;;;;;;;21.78;58.39;100877.00;5026219;28;20471;-57
2022/05/26 09:52:55;;;;;;;0.40;0.20;;;;;;;21.95;57.30;100878.63;4978998;28;20452;-58
2022/05/26 09:55:32;;;;;;;0.40;0.27;;;;;;;22.44;57.38;100875.34;5010464;28;20490;-58
2022/05/26 09:58:12;;;;;;;0.40;0.30;;;;;;;22.97;56.19;100881.59;5023199;28;20491;-58
2022/05/26 10:00:45;;;;;;;0.40;0.20;;;;;;;22.90;54.55;100877.63;5027162;28;21009;-58
2022/05/26 10:03:38;;;;;;;0.40;0.20;;;;;;;22.92;53.98;100872.94;5024423;28;20451;-58
2022/05/26 10:06:07;;;;;;;0.40;0.20;;;;;;;22.34;54.05;100879.63;5011818;28;20913;-58
2022/05/26 10:08:51;;;;;;;0.40;0.20;;;;;;;22.61;53.01;100883.16;5027110;28;20463;-58
2022/05/26 10:11:48;;;;;;;0.40;0.20;;;;;;;23.63;52.53;100881.34;5026465;28;20451;-58
2022/05/26 10:14:38;;;;;;;0.50;0.40;;;;;;;23.35;52.78;100877.03;5021872;28;20457;-58
2022/05/26 10:17:13;;;;;;;2.97;2.20;;;;;;;23.68;50.03;100880.13;5022684;28;20522;-58
2022/05/26 10:20:02;;;;;;;0.40;0.30;;;;;;;23.69;47.44;100882.72;5025728;28;20549;-58
2022/05/26 10:22:55;;;;;;;0.40;0.20;;;;;;;23.83;47.82;100879.84;5014679;28;20491;-57
2022/05/26 10:25:33;;;;;;;0.40;0.20;;;;;;;23.97;46.70;100873.38;5031177;28;20458;-58
2022/05/26 10:28:26;;;;;;;0.40;0.20;;;;;;;23.68;47.07;100878.28;5030696;28;20956;-58
2022/05/26 10:31:22;;;;;;;0.40;0.20;;;;;;;24.07;44.51;100874.44;5032804;28;20522;-58
2022/05/26 10:34:27;;;;;;;0.90;0.90;;;;;;;24.51;45.14;100875.63;5031746;28;20487;-57
2022/05/26 10:37:20;;;;;;;0.40;0.20;;;;;;;24.38;43.63;100875.69;5011208;28;20865;-57
2022/05/26 10:40:08;;;;;;;0.40;0.20;;;;;;;24.14;42.63;100873.00;5021757;28;20495;-57
2022/05/26 10:42:43;;;;;;;0.40;0.20;;;;;;;23.64;45.11;100876.78;5032795;28;20447;-57
2022/05/26 10:45:24;;;;;;;0.40;0.20;;;;;;;24.19;44.73;100876.22;5014421;28;20464;-57
2022/05/26 10:48:09;;;;;;;0.40;0.30;;;;;;;24.18;43.73;100873.63;5020339;28;20443;-57
2022/05/26 10:50:50;;;;;;;0.40;0.30;;;;;;;23.72;44.76;100866.22;5018150;28;20481;-57
2022/05/26 10:53:30;;;;;;;0.40;0.20;;;;;;;23.83;46.40;100868.13;5024428;28;20480;-57
2022/05/26 10:56:06;;;;;;;0.40;0.20;;;;;;;24.22;46.99;100865.13;5022311;28;20476;-57
2022/05/26 10:58:42;;;;;;;0.40;0.20;;;;;;;23.60;47.81;100872.56;5026218;28;20541;-57
2022/05/26 11:01:24;;;;;;;0.40;0.20;;;;;;;24.00;49.07;100862.31;5019492;28;20459;-57
2022/05/26 11:03:58;;;;;;;0.40;0.30;;;;;;;23.92;49.38;100873.75;5025837;28;20546;-57
2022/05/26 11:06:32;;;;;;;0.40;0.20;;;;;;;24.45;47.40;100866.09;5024484;28;20518;-57
2022/05/26 11:09:08;;;;;;;0.40;0.20;;;;;;;24.90;47.48;100866.19;5001747;28;20447;-58
2022/05/26 11:11:37;;;;;;;0.40;0.20;;;;;;;24.69;47.53;100876.94;5021470;28;21019;-57
2022/05/26 11:14:08;;;;;;;0.40;0.20;;;;;;;24.87;47.44;100874.59;5023994;28;20510;-57
2022/05/26 11:19:43;;;;;;;0.40;0.20;;;;;;;24.94;46.59;100867.69;5011705;28;20496;-57
2022/05/26 11:22:12;;;;;;;0.40;0.20;;;;;;;25.12;46.90;100869.97;5011494;28;20543;-57
2022/05/26 11:24:39;;;;;;;0.40;0.20;;;;;;;24.64;46.96;100868.25;5016726;28;20879;-57
2022/05/26 11:27:16;;;;;;;0.40;0.20;;;;;;;24.73;45.42;100861.22;5016142;28;20460;-57
2022/05/26 11:29:49;;;;;;;0.40;0.20;;;;;;;25.10;43.90;100865.53;5024693;28;20533;-57
2022/05/26 11:38:28;;;;;;;0.40;0.20;;;;;;;24.14;45.99;100869.41;5014701;28;21005;-56
2022/05/26 11:41:04;;;;;;;0.40;0.20;;;;;;;24.22;47.01;100853.38;5019565;28;20475;-57
2022/05/26 11:43:55;;;;;;;0.40;0.20;;;;;;;24.40;45.27;100857.44;5007317;28;20806;-57
2022/05/26 11:46:53;;;;;;;0.40;0.20;;;;;;;24.71;44.31;100863.22;4996003;28;20448;-57
2022/05/26 11:49:47;;;;;;;0.50;0.30;;;;;;;24.65;44.08;100848.22;5022496;28;20476;-57
2022/05/26 11:52:34;;;;;;;0.40;0.20;;;;;;;24.97;45.23;100859.31;5026007;28;20453;-57
2022/05/26 11:55:14;;;;;;;0.40;0.20;;;;;;;25.19;42.41;100852.16;5021442;28;20548;-57
2022/05/26 11:57:41;;;;;;;0.50;0.30;;;;;;;24.79;45.25;100858.00;5008073;28;20461;-56
2022/05/26 12:00:40;;;;;;;0.40;0.20;;;;;;;24.48;46.13;100855.00;5013503;28;20480;-57
2022/05/26 12:03:22;;;;;;;0.40;0.20;;;;;;;24.62;45.86;100866.63;4990482;28;20457;-57
2022/05/26 12:06:14;;;;;;;0.40;0.20;;;;;;;24.19;46.29;100865.34;5014908;28;20506;-57
2022/05/26 12:08:44;;;;;;;0.40;0.20;;;;;;;23.99;46.74;100873.28;5014942;28;21007;-58
2022/05/26 12:11:12;;;;;;;0.40;0.20;;;;;;;23.51;47.31;100859.63;5022414;28;20463;-57
2022/05/26 12:13:40;;;;;;;0.60;0.60;;;;;;;23.48;47.91;100868.84;5016459;28;20455;-57
2022/05/26 12:16:17;;;;;;;0.40;0.20;;;;;;;23.66;48.72;100874.81;5020243;28;21145;-57
2022/05/26 12:18:49;;;;;;;1.17;1.07;;;;;;;24.02;47.10;100863.06;4999064;28;20488;-57
2022/05/26 12:21:34;;;;;;;0.53;0.47;;;;;;;23.96;46.49;100868.06;5011818;28;20961;-58
2022/05/26 12:24:31;;;;;;;0.40;0.20;;;;;;;23.66;47.46;100865.78;5023571;28;20459;-58
2022/05/26 12:26:59;;;;;;;0.40;0.20;;;;;;;23.91;47.05;100865.72;5018824;28;20952;-57
2022/05/26 12:30:05;;;;;;;0.40;0.20;;;;;;;23.86;46.49;100855.19;5018065;28;20476;-57